createdAt,value
2019-01-21T00:01:23.148Z,8.38
2019-01-21T00:03:51.840Z,8.30
2019-01-21T00:09:09.099Z,8.80
2019-01-21T00:11:37.795Z,8.75
2019-01-21T00:16:54.343Z,8.63
2019-01-21T00:21:57.113Z,9.90
2019-01-21T00:24:25.727Z,9.45
2019-01-21T00:29:42.234Z,10.23
2019-01-21T00:32:10.799Z,9.78
2019-01-21T00:34:39.399Z,9.65
2019-01-21T00:37:07.967Z,9.83
2019-01-21T00:39:37.274Z,10.03
2019-01-21T00:42:06.298Z,10.70
2019-01-21T00:44:34.894Z,10.90
2019-01-21T00:47:03.482Z,11.10
2019-01-21T00:49:32.061Z,11.55
2019-01-21T00:52:01.523Z,10.45
2019-01-21T00:54:30.111Z,11.30
2019-01-21T00:56:58.822Z,10.95
2019-01-21T00:59:27.405Z,10.28
2019-01-21T01:02:15.231Z,12.13
2019-01-21T01:04:43.839Z,10.35
2019-01-21T01:10:00.175Z,12.07
2019-01-21T01:12:28.756Z,11.55
2019-01-21T01:14:57.338Z,10.25
2019-01-21T01:17:25.940Z,12.23
2019-01-21T01:22:29.234Z,10.68
2019-01-21T01:24:58.641Z,12.05
2019-01-21T01:27:27.211Z,11.68
2019-01-21T01:29:55.791Z,12.58
2019-01-21T01:32:24.386Z,12.18
2019-01-21T01:34:53.387Z,11.10
2019-01-21T01:37:22.007Z,11.12
2019-01-21T01:39:50.595Z,11.63
2019-01-21T01:42:19.184Z,11.70
2019-01-21T01:44:47.772Z,12.55
2019-01-21T01:52:25.328Z,12.45
2019-01-21T01:57:47.800Z,11.43
2019-01-21T02:00:16.855Z,12.25
2019-01-21T02:02:45.520Z,12.05
2019-01-21T02:05:14.211Z,11.97
2019-01-21T02:07:42.818Z,12.33
2019-01-21T02:10:32.230Z,12.68
2019-01-21T02:13:00.929Z,13.40
2019-01-21T02:15:29.512Z,11.35
2019-01-21T02:17:58.390Z,12.43
2019-01-21T02:20:26.955Z,11.63
2019-01-21T02:22:58.888Z,14.00
2019-01-21T02:26:05.990Z,12.73
2019-01-21T02:28:57.192Z,13.50
2019-01-21T02:32:04.290Z,13.53
2019-01-21T02:35:11.439Z,11.78
2019-01-21T02:38:18.907Z,13.00
2019-01-21T02:41:13.626Z,12.35
2019-01-21T02:44:20.731Z,12.73
2019-01-21T02:47:11.444Z,14.98
2019-01-21T02:50:18.679Z,12.63
2019-01-21T02:53:25.757Z,13.83
2019-01-21T02:56:28.039Z,13.85
2019-01-21T02:59:35.135Z,12.37
2019-01-21T03:02:27.779Z,12.23
2019-01-21T03:05:35.119Z,12.23
2019-01-21T03:08:36.462Z,13.60
2019-01-21T03:11:39.381Z,12.85
2019-01-21T03:14:46.451Z,14.50
2019-01-21T03:21:11.808Z,12.95
2019-01-21T03:24:18.970Z,12.75
2019-01-21T03:27:26.867Z,13.08
2019-01-21T03:30:28.901Z,11.65
2019-01-21T03:33:22.353Z,12.75
2019-01-21T03:36:17.908Z,12.25
2019-01-21T03:39:14.576Z,11.90
2019-01-21T03:42:05.366Z,10.70
2019-01-21T03:45:12.651Z,12.75
2019-01-21T03:48:03.881Z,12.00
2019-01-21T03:50:58.812Z,13.18
2019-01-21T03:53:50.896Z,12.35
2019-01-21T03:56:29.033Z,11.75
2019-01-21T03:59:22.712Z,12.78
2019-01-21T04:02:29.820Z,12.65
2019-01-21T04:08:49.973Z,10.40
2019-01-21T04:11:57.095Z,11.00
2019-01-21T04:15:04.201Z,10.18
2019-01-21T04:18:11.310Z,11.10
2019-01-21T04:21:18.446Z,9.35
2019-01-21T04:24:44.658Z,9.60
2019-01-21T04:27:36.197Z,9.93
2019-01-21T04:30:29.063Z,9.15
2019-01-21T04:33:22.714Z,10.05
2019-01-21T04:36:29.817Z,10.05
2019-01-21T04:39:20.577Z,9.88
2019-01-21T04:42:27.766Z,8.45
2019-01-21T04:45:34.860Z,8.65
2019-01-21T04:48:32.883Z,6.72
2019-01-21T04:51:27.691Z,7.00
2019-01-21T04:58:05.311Z,6.60
2019-01-21T05:01:12.404Z,5.67
2019-01-21T05:04:19.576Z,5.95
2019-01-21T05:07:14.132Z,4.97
2019-01-21T05:10:21.238Z,5.05
2019-01-21T05:13:28.326Z,4.60
2019-01-21T05:20:05.322Z,6.03
2019-01-21T05:23:12.422Z,5.00
2019-01-21T05:26:19.547Z,4.83
2019-01-21T05:29:10.429Z,4.95
2019-01-21T05:32:17.507Z,4.65
2019-01-21T05:35:10.338Z,4.30
2019-01-21T05:38:17.455Z,4.67
2019-01-21T05:41:24.652Z,3.80
2019-01-21T05:44:19.841Z,2.87
2019-01-21T05:47:25.710Z,3.62
2019-01-21T05:50:17.559Z,3.30
2019-01-21T05:53:24.662Z,3.55
2019-01-21T05:56:31.749Z,3.65
2019-01-21T05:59:30.504Z,2.95
2019-01-21T06:02:29.961Z,3.35
2019-01-21T06:05:16.507Z,2.67
2019-01-21T06:07:55.944Z,2.70
2019-01-21T06:10:48.199Z,2.67
2019-01-21T06:13:55.339Z,2.77
2019-01-21T06:16:49.951Z,1.77
2019-01-21T06:19:36.884Z,2.00
2019-01-21T06:22:37.414Z,1.98
2019-01-21T06:25:29.106Z,2.33
2019-01-21T06:32:19.708Z,2.77
2019-01-21T06:34:59.433Z,2.65
2019-01-21T06:38:06.539Z,2.75
2019-01-21T06:41:13.662Z,2.00
2019-01-21T06:44:05.264Z,2.25
2019-01-21T06:47:12.605Z,2.87
2019-01-21T06:50:19.712Z,3.33
2019-01-21T06:53:26.822Z,2.70
2019-01-21T06:56:34.047Z,2.62
2019-01-21T06:59:41.181Z,2.50
2019-01-21T07:02:32.203Z,2.22
2019-01-21T07:05:24.988Z,2.55
2019-01-21T07:08:24.574Z,2.33
2019-01-21T07:11:34.458Z,1.85
2019-01-21T07:14:41.555Z,1.72
2019-01-21T07:21:01.036Z,2.62
2019-01-21T07:23:54.167Z,1.30
2019-01-21T07:30:23.980Z,1.30
2019-01-21T07:33:31.073Z,1.60
2019-01-21T07:36:22.168Z,1.32
2019-01-21T07:39:15.402Z,1.60
2019-01-21T07:42:22.506Z,1.90
2019-01-21T07:45:16.297Z,1.87
2019-01-21T07:48:11.334Z,1.50
2019-01-21T07:51:18.438Z,1.52
2019-01-21T07:58:09.399Z,1.35
2019-01-21T08:01:21.549Z,2.00
2019-01-21T08:04:28.654Z,1.37
2019-01-21T08:07:19.818Z,1.65
2019-01-21T08:13:17.849Z,1.50
2019-01-21T08:16:11.667Z,2.98
2019-01-21T08:19:03.426Z,2.60
2019-01-21T08:22:10.536Z,2.87
2019-01-21T08:28:48.108Z,2.40
2019-01-21T08:31:55.221Z,2.27
2019-01-21T08:34:46.354Z,2.10
2019-01-21T08:37:53.469Z,2.05
2019-01-21T08:41:00.596Z,1.90
2019-01-21T08:43:55.956Z,2.02
2019-01-21T08:46:47.046Z,2.70
2019-01-21T08:53:04.690Z,1.65
2019-01-21T08:55:56.194Z,1.98
2019-01-21T08:59:03.298Z,2.60
2019-01-21T09:02:12.947Z,2.40
2019-01-21T09:05:20.066Z,2.87
2019-01-21T09:08:27.223Z,2.42
2019-01-21T09:11:37.367Z,1.90
2019-01-21T09:14:32.698Z,2.25
2019-01-21T09:17:39.843Z,2.45
2019-01-21T09:20:49.696Z,2.20
2019-01-21T09:23:56.800Z,2.87
2019-01-21T09:26:49.375Z,2.70
2019-01-21T09:29:56.476Z,2.65
2019-01-21T09:32:47.117Z,2.70
2019-01-21T09:35:38.595Z,2.85
2019-01-21T09:38:45.706Z,2.80
2019-01-21T09:41:52.815Z,3.30
2019-01-21T09:47:54.203Z,2.90
2019-01-21T09:50:22.884Z,4.07
2019-01-21T09:52:51.768Z,4.00
2019-01-21T09:56:00.210Z,3.20
2019-01-21T09:58:49.825Z,2.20
2019-01-21T10:01:58.254Z,2.70
2019-01-21T10:04:53.037Z,3.60
2019-01-21T10:08:01.358Z,3.57
2019-01-21T10:10:54.080Z,1.80
2019-01-21T10:14:01.173Z,3.10
2019-01-21T10:17:08.307Z,3.23
2019-01-21T10:20:15.401Z,2.00
2019-01-21T10:23:09.464Z,3.00
2019-01-21T10:26:16.546Z,2.10
2019-01-21T10:29:11.691Z,2.73
2019-01-21T10:35:27.512Z,2.60
2019-01-21T10:38:46.563Z,3.67
2019-01-21T10:41:22.452Z,2.10
2019-01-21T10:43:59.372Z,3.07
2019-01-21T10:46:53.602Z,3.10
2019-01-21T10:49:49.991Z,2.50
2019-01-21T10:52:44.361Z,3.00
2019-01-21T10:55:40.472Z,3.10
2019-01-21T10:58:47.560Z,2.70
2019-01-21T11:01:54.665Z,2.60
2019-01-21T11:05:04.604Z,2.70
2019-01-21T11:08:14.474Z,3.10
2019-01-21T11:11:05.072Z,2.43
2019-01-21T11:13:52.009Z,2.50
2019-01-21T11:16:43.624Z,2.80
2019-01-21T11:19:50.735Z,2.30
2019-01-21T11:22:46.091Z,2.60
2019-01-21T11:25:53.287Z,3.00
2019-01-21T11:28:44.734Z,2.60
2019-01-21T11:31:51.878Z,2.20
2019-01-21T11:35:01.831Z,2.17
2019-01-21T11:38:04.686Z,2.10
2019-01-21T11:40:55.771Z,3.10
2019-01-21T11:43:47.308Z,2.25
2019-01-21T11:46:42.535Z,2.00
2019-01-21T11:49:49.629Z,2.15
2019-01-21T11:52:43.249Z,2.37
2019-01-21T11:55:31.871Z,2.17
2019-01-21T11:58:56.828Z,2.55
2019-01-21T12:02:03.936Z,2.25
2019-01-21T12:04:55.207Z,1.98
2019-01-21T12:08:03.326Z,3.10
2019-01-21T12:10:57.372Z,2.10
2019-01-21T12:13:53.859Z,3.15
2019-01-21T12:16:52.595Z,2.22
2019-01-21T12:19:59.115Z,2.20
2019-01-21T12:23:09.081Z,1.92
2019-01-21T12:25:53.422Z,1.73
2019-01-21T12:29:03.358Z,1.43
2019-01-21T12:31:59.293Z,2.00
2019-01-21T12:34:41.734Z,2.17
2019-01-21T12:37:47.954Z,1.53
2019-01-21T12:40:49.597Z,3.43
2019-01-21T12:44:07.479Z,2.17
2019-01-21T12:46:43.824Z,2.20
2019-01-21T12:49:47.371Z,2.23
2019-01-21T12:52:27.950Z,1.70
2019-01-21T12:55:49.936Z,1.77
2019-01-21T12:58:28.186Z,2.40
2019-01-21T13:01:10.969Z,2.50
2019-01-21T13:03:58.394Z,3.40
2019-01-21T13:06:49.676Z,3.00
2019-01-21T13:10:00.646Z,4.17
2019-01-21T13:13:19.883Z,5.47
2019-01-21T13:16:29.797Z,5.33
2019-01-21T13:19:32.034Z,4.33
2019-01-21T13:22:27.925Z,4.63
2019-01-21T13:25:46.696Z,2.90
2019-01-21T13:29:02.887Z,3.10
2019-01-21T13:32:18.921Z,2.83
2019-01-21T13:35:31.033Z,3.00
2019-01-21T13:38:14.708Z,3.97
2019-01-21T13:41:15.457Z,3.37
2019-01-21T13:44:19.979Z,3.67
2019-01-21T13:47:13.619Z,3.13
2019-01-21T13:49:50.540Z,3.50
2019-01-21T13:52:46.096Z,6.20
2019-01-21T13:55:24.951Z,4.00
2019-01-21T13:58:45.702Z,4.97
2019-01-21T14:01:39.498Z,5.27
2019-01-21T14:04:38.730Z,4.50
2019-01-21T14:07:44.958Z,5.40
2019-01-21T14:10:43.883Z,4.40
2019-01-21T14:13:27.342Z,5.13
2019-01-21T14:16:01.715Z,5.63
2019-01-21T14:19:01.417Z,5.07
2019-01-21T14:21:44.692Z,4.78
2019-01-21T14:24:57.097Z,4.28
2019-01-21T14:27:49.241Z,4.30
2019-01-21T14:30:35.301Z,4.55
2019-01-21T14:33:32.242Z,4.80
2019-01-21T14:36:52.725Z,6.03
2019-01-21T14:39:56.032Z,7.40
2019-01-21T14:42:54.024Z,6.25
2019-01-21T14:45:49.946Z,6.08
2019-01-21T14:48:46.716Z,6.62
2019-01-21T14:51:51.296Z,7.97
2019-01-21T14:54:44.571Z,9.15
2019-01-21T14:57:48.556Z,9.18
2019-01-21T15:00:43.989Z,8.85
2019-01-21T15:03:31.407Z,10.50
2019-01-21T15:06:38.351Z,8.95
2019-01-21T15:09:59.097Z,7.00
2019-01-21T15:13:04.112Z,7.05
2019-01-21T15:16:04.928Z,7.70
2019-01-21T15:18:48.336Z,7.30
2019-01-21T15:21:34.105Z,7.80
2019-01-21T15:24:17.384Z,8.80
2019-01-21T15:26:59.602Z,10.68
2019-01-21T15:29:56.577Z,11.93
2019-01-21T15:33:10.952Z,11.68
2019-01-21T15:36:14.992Z,11.57
2019-01-21T15:39:19.795Z,12.98
2019-01-21T15:42:12.442Z,11.50
2019-01-21T15:45:22.401Z,12.75
2019-01-21T15:48:46.197Z,10.98
2019-01-21T15:51:57.996Z,11.22
2019-01-21T15:54:58.234Z,10.95
2019-01-21T15:58:01.081Z,11.83
2019-01-21T16:01:06.446Z,12.25
2019-01-21T16:03:53.088Z,12.60
2019-01-21T16:06:41.385Z,12.70
2019-01-21T16:09:36.013Z,13.48
2019-01-21T16:12:53.210Z,13.55
2019-01-21T16:15:51.593Z,13.48
2019-01-21T16:18:29.055Z,13.95
2019-01-21T16:21:22.974Z,12.50
2019-01-21T16:24:38.957Z,12.68
2019-01-21T16:27:34.543Z,12.47
2019-01-21T16:30:21.486Z,13.95
2019-01-21T16:33:10.743Z,12.75
2019-01-21T16:36:24.144Z,12.90
2019-01-21T16:39:00.351Z,11.78
2019-01-21T16:41:51.884Z,13.13
2019-01-21T16:44:20.687Z,13.75
2019-01-21T16:46:49.301Z,12.65
2019-01-21T16:49:17.863Z,13.15
2019-01-21T16:51:46.708Z,11.57
2019-01-21T16:54:15.541Z,11.63
2019-01-21T16:56:44.120Z,12.03
2019-01-21T16:59:12.710Z,9.40
2019-01-21T17:01:41.279Z,9.30
2019-01-21T17:04:09.934Z,9.83
2019-01-21T17:06:39.532Z,8.70
2019-01-21T17:09:10.756Z,10.08
2019-01-21T17:11:40.358Z,8.93
2019-01-21T17:14:12.987Z,7.87
2019-01-21T17:16:41.598Z,7.85
2019-01-21T17:19:10.184Z,8.80
2019-01-21T17:21:38.796Z,8.63
2019-01-21T17:24:07.335Z,8.88
2019-01-21T17:26:35.985Z,9.28
2019-01-21T17:29:04.727Z,9.80
2019-01-21T17:31:33.372Z,9.83
2019-01-21T17:34:02.152Z,10.23
2019-01-21T17:36:31.163Z,8.93
2019-01-21T17:38:59.791Z,9.40
2019-01-21T17:41:28.390Z,6.97
2019-01-21T17:43:56.984Z,6.03
2019-01-21T17:46:25.551Z,4.80
2019-01-21T17:48:54.238Z,4.55
2019-01-21T17:51:22.836Z,4.30
2019-01-21T17:53:51.613Z,6.33
2019-01-21T17:56:20.254Z,6.17
2019-01-21T17:58:48.842Z,6.12
2019-01-21T18:01:17.657Z,5.72
2019-01-21T18:03:46.221Z,4.75
2019-01-21T18:06:14.822Z,4.65
2019-01-21T18:08:43.701Z,4.42
2019-01-21T18:11:12.321Z,4.65
2019-01-21T18:13:40.875Z,4.03
2019-01-21T18:16:09.551Z,3.75
2019-01-21T18:18:38.164Z,4.53
2019-01-21T18:21:07.557Z,5.17
2019-01-21T18:23:36.152Z,3.90
2019-01-21T18:26:05.378Z,4.45
2019-01-21T18:28:34.162Z,4.15
2019-01-21T18:31:03.629Z,2.80
2019-01-21T18:36:06.369Z,3.15
2019-01-21T18:38:35.471Z,3.30
2019-01-21T18:41:04.357Z,3.67
2019-01-21T18:43:32.996Z,4.12
2019-01-21T18:46:01.724Z,3.92
2019-01-21T18:48:49.814Z,4.20
2019-01-21T18:51:18.548Z,3.60
2019-01-21T18:53:47.276Z,4.12
2019-01-21T18:56:15.967Z,4.72
2019-01-21T19:01:18.726Z,4.30
2019-01-21T19:03:47.322Z,4.97
2019-01-21T19:06:15.922Z,4.60
2019-01-21T19:08:44.528Z,5.05
2019-01-21T19:11:13.432Z,6.00
2019-01-21T19:13:42.107Z,6.35
2019-01-21T19:16:10.686Z,5.35
2019-01-21T19:18:39.251Z,5.10
2019-01-21T19:21:08.009Z,5.50
2019-01-21T19:23:36.674Z,6.80
2019-01-21T19:26:05.477Z,5.87
2019-01-21T19:28:34.055Z,6.05
2019-01-21T19:31:02.805Z,4.40
2019-01-21T19:33:31.393Z,5.90
2019-01-21T19:35:59.980Z,4.05
2019-01-21T19:38:28.538Z,4.78
2019-01-21T19:40:57.148Z,4.20
2019-01-21T19:43:25.821Z,4.12
2019-01-21T19:45:54.638Z,3.95
2019-01-21T19:48:23.576Z,4.72
2019-01-21T19:50:52.205Z,4.65
2019-01-21T19:56:08.463Z,4.35
2019-01-21T20:01:24.738Z,4.45
2019-01-21T20:03:53.622Z,4.03
2019-01-21T20:06:22.357Z,5.00
2019-01-21T20:08:51.270Z,5.15
2019-01-21T20:11:19.894Z,9.98
2019-01-21T20:13:48.531Z,4.67
2019-01-21T20:16:17.107Z,5.33
2019-01-21T20:18:45.690Z,4.33
2019-01-21T20:21:15.449Z,4.10
2019-01-21T20:23:44.072Z,4.28
2019-01-21T20:26:13.635Z,4.80
2019-01-21T20:28:43.030Z,4.92
2019-01-21T20:31:11.862Z,5.05
2019-01-21T20:33:40.576Z,4.50
2019-01-21T20:36:09.481Z,4.95
2019-01-21T20:38:38.079Z,4.22
2019-01-21T20:41:06.968Z,4.90
2019-01-21T20:43:35.553Z,4.70
2019-01-21T20:46:04.321Z,4.12
2019-01-21T20:51:06.847Z,4.45
2019-01-21T20:53:35.620Z,3.98
2019-01-21T20:56:04.155Z,4.10
2019-01-21T20:58:32.789Z,4.12
2019-01-21T21:01:01.415Z,4.08
2019-01-21T21:03:30.037Z,4.12
2019-01-21T21:05:58.714Z,4.22
2019-01-21T21:08:27.302Z,4.70
2019-01-21T21:10:55.882Z,4.00
2019-01-21T21:13:24.478Z,4.60
2019-01-21T21:15:53.241Z,4.25
2019-01-21T21:18:21.832Z,4.08
2019-01-21T21:20:50.449Z,3.30
2019-01-21T21:23:19.016Z,4.22
2019-01-21T21:25:47.595Z,4.45
2019-01-21T21:28:16.185Z,3.62
2019-01-21T21:30:44.784Z,3.50
2019-01-21T21:33:13.426Z,3.33
2019-01-21T21:35:42.048Z,3.40
2019-01-21T21:38:10.618Z,2.50
2019-01-21T21:40:39.197Z,2.65
2019-01-21T21:43:07.801Z,2.75
2019-01-21T21:45:36.655Z,3.17
2019-01-21T21:48:05.377Z,3.15
2019-01-21T21:50:33.998Z,3.00
2019-01-21T21:53:02.673Z,3.02
2019-01-21T21:55:31.347Z,3.12
2019-01-21T21:58:00.186Z,3.50
2019-01-21T22:03:36.313Z,3.10
2019-01-21T22:06:05.304Z,2.87
2019-01-21T22:08:34.142Z,2.75
2019-01-21T22:11:02.750Z,3.02
2019-01-21T22:13:31.331Z,2.67
2019-01-21T22:15:59.943Z,3.45
2019-01-21T22:18:28.804Z,2.35
2019-01-21T22:20:57.616Z,2.70
2019-01-21T22:23:26.207Z,3.50
2019-01-21T22:25:54.815Z,3.50
2019-01-21T22:28:44.478Z,2.75
2019-01-21T22:31:32.363Z,3.90
2019-01-21T22:34:20.201Z,2.40
2019-01-21T22:36:48.793Z,1.90
2019-01-21T22:39:17.397Z,1.95
2019-01-21T22:42:05.225Z,2.25
2019-01-21T22:44:35.570Z,1.95
2019-01-21T22:47:04.451Z,2.35
2019-01-21T22:49:33.034Z,2.50
2019-01-21T22:52:01.630Z,3.65
2019-01-21T22:54:30.202Z,2.47
2019-01-21T22:57:00.553Z,2.08
2019-01-21T22:59:29.380Z,1.95
2019-01-21T23:01:57.980Z,1.85
2019-01-21T23:04:26.828Z,2.08
2019-01-21T23:06:55.432Z,1.95
2019-01-21T23:09:24.331Z,1.47
2019-01-21T23:11:52.920Z,1.80
2019-01-21T23:14:21.499Z,1.45
2019-01-21T23:16:50.163Z,1.82
2019-01-21T23:19:18.761Z,1.32
2019-01-21T23:21:47.373Z,1.55
2019-01-21T23:24:17.757Z,1.30
2019-01-21T23:26:46.593Z,1.72
2019-01-21T23:29:15.169Z,1.30
2019-01-21T23:31:43.786Z,0.90
2019-01-21T23:34:12.354Z,1.20
2019-01-21T23:36:40.924Z,1.32
2019-01-21T23:39:09.552Z,1.42
2019-01-21T23:41:38.113Z,1.75
2019-01-21T23:44:06.714Z,1.65
2019-01-21T23:46:35.515Z,1.42
2019-01-21T23:49:04.095Z,1.62
2019-01-21T23:51:34.471Z,1.75
2019-01-21T23:54:03.060Z,1.17
2019-01-21T23:56:31.643Z,1.65
2019-01-21T23:59:00.307Z,1.70
